createdAt,value
2022-11-08T00:00:38.597Z,13.65
2022-11-08T00:01:43.659Z,13.68
2022-11-08T00:02:45.406Z,13.69
2022-11-08T00:03:47.958Z,13.72
2022-11-08T00:04:49.547Z,13.74
2022-11-08T00:06:09.530Z,13.76
2022-11-08T00:07:29.723Z,13.77
2022-11-08T00:08:49.945Z,13.79
2022-11-08T00:10:10.417Z,13.80
2022-11-08T00:11:30.784Z,13.80
2022-11-08T00:12:50.836Z,13.81
2022-11-08T00:13:59.766Z,13.82
2022-11-08T00:15:03.123Z,13.82
2022-11-08T00:16:06.438Z,13.84
2022-11-08T00:17:09.260Z,13.85
2022-11-08T00:18:12.129Z,13.86
2022-11-08T00:19:13.747Z,13.86
2022-11-08T00:20:16.445Z,13.88
2022-11-08T00:21:17.983Z,13.90
2022-11-08T00:22:21.427Z,13.91
2022-11-08T00:23:23.055Z,13.91
2022-11-08T00:24:25.823Z,13.92
2022-11-08T00:25:27.746Z,13.93
2022-11-08T00:26:30.259Z,13.94
2022-11-08T00:27:31.808Z,13.94
2022-11-08T00:28:34.296Z,13.95
2022-11-08T00:29:36.291Z,13.94
2022-11-08T00:30:38.743Z,13.97
2022-11-08T00:31:41.682Z,13.96
2022-11-08T00:32:44.161Z,13.97
2022-11-08T00:33:45.895Z,13.97
2022-11-08T00:34:49.138Z,13.97
2022-11-08T00:35:51.115Z,13.96
2022-11-08T00:36:54.561Z,13.96
2022-11-08T00:37:56.108Z,13.96
2022-11-08T00:38:58.610Z,13.97
2022-11-08T00:40:00.141Z,13.97
2022-11-08T00:41:02.711Z,13.96
2022-11-08T00:42:04.845Z,13.96
2022-11-08T00:43:07.327Z,13.95
2022-11-08T00:44:08.853Z,13.97
2022-11-08T00:45:11.406Z,13.96
2022-11-08T00:46:13.012Z,13.96
2022-11-08T00:47:16.846Z,13.96
2022-11-08T00:48:18.775Z,13.95
2022-11-08T00:49:21.758Z,13.94
2022-11-08T00:50:24.280Z,13.94
2022-11-08T00:51:26.777Z,13.93
2022-11-08T00:52:28.298Z,13.93
2022-11-08T00:53:30.927Z,13.93
2022-11-08T00:54:32.635Z,13.93
2022-11-08T00:55:35.107Z,13.92
2022-11-08T00:56:36.671Z,13.93
2022-11-08T00:57:57.972Z,13.93
2022-11-08T00:59:01.962Z,13.94
2022-11-08T01:00:03.804Z,13.95
2022-11-08T01:01:12.979Z,13.95
2022-11-08T01:02:16.928Z,13.96
2022-11-08T01:03:18.731Z,13.97
2022-11-08T01:04:21.344Z,13.98
2022-11-08T01:05:23.294Z,13.99
2022-11-08T01:06:26.538Z,14.00
2022-11-08T01:07:28.091Z,14.00
2022-11-08T01:08:30.586Z,14.02
2022-11-08T01:09:32.116Z,14.03
2022-11-08T01:10:35.211Z,14.04
2022-11-08T01:11:38.217Z,14.04
2022-11-08T01:12:40.725Z,14.05
2022-11-08T01:13:42.643Z,14.08
2022-11-08T01:14:45.142Z,14.08
2022-11-08T01:15:46.790Z,14.09
2022-11-08T01:16:49.401Z,14.10
2022-11-08T01:17:52.514Z,14.12
2022-11-08T01:18:56.621Z,14.12
2022-11-08T01:19:58.170Z,14.11
2022-11-08T01:21:00.730Z,14.13
2022-11-08T01:22:02.243Z,14.14
2022-11-08T01:23:04.754Z,14.14
2022-11-08T01:24:07.337Z,14.15
2022-11-08T01:25:10.289Z,14.15
2022-11-08T01:26:14.712Z,14.15
2022-11-08T01:27:17.218Z,14.15
2022-11-08T01:28:19.207Z,14.16
2022-11-08T01:29:22.044Z,14.15
2022-11-08T01:30:23.698Z,14.14
2022-11-08T01:31:27.857Z,14.15
2022-11-08T01:32:29.388Z,14.12
2022-11-08T01:33:33.883Z,14.11
2022-11-08T01:34:36.631Z,14.06
2022-11-08T01:35:39.228Z,14.05
2022-11-08T01:36:41.696Z,14.03
2022-11-08T01:37:43.190Z,14.01
2022-11-08T01:38:45.780Z,13.99
2022-11-08T01:39:47.315Z,13.98
2022-11-08T01:40:50.176Z,13.99
2022-11-08T01:41:51.751Z,14.00
2022-11-08T01:42:54.461Z,14.02
2022-11-08T01:43:58.014Z,14.02
2022-11-08T01:45:00.618Z,14.05
2022-11-08T01:46:32.894Z,14.08
2022-11-08T01:47:35.698Z,14.09
2022-11-08T01:48:42.111Z,14.10
2022-11-08T01:49:47.935Z,14.13
2022-11-08T01:50:50.445Z,14.14
2022-11-08T01:52:02.126Z,14.15
2022-11-08T01:53:04.779Z,14.14
2022-11-08T01:54:10.413Z,14.15
2022-11-08T01:55:18.410Z,14.12
2022-11-08T01:56:20.802Z,14.10
2022-11-08T01:57:27.645Z,14.09
2022-11-08T01:58:34.472Z,14.06
2022-11-08T01:59:40.632Z,14.03
2022-11-08T02:00:44.103Z,14.00
2022-11-08T02:01:45.954Z,13.98
2022-11-08T02:02:55.471Z,13.95
2022-11-08T02:03:59.476Z,13.92
2022-11-08T02:05:03.512Z,13.90
2022-11-08T02:06:06.601Z,13.87
2022-11-08T02:07:12.287Z,13.86
2022-11-08T02:08:20.231Z,13.84
2022-11-08T02:09:23.077Z,13.82
2022-11-08T02:10:30.585Z,13.82
2022-11-08T02:11:34.473Z,13.81
2022-11-08T02:12:36.963Z,13.79
2022-11-08T02:13:39.479Z,13.78
2022-11-08T02:14:42.407Z,13.75
2022-11-08T02:15:44.265Z,13.72
2022-11-08T02:16:46.812Z,13.71
2022-11-08T02:17:48.592Z,13.71
2022-11-08T02:18:51.485Z,13.69
2022-11-08T02:19:55.388Z,13.68
2022-11-08T02:21:03.910Z,13.68
2022-11-08T02:22:14.325Z,13.67
2022-11-08T02:23:24.162Z,13.66
2022-11-08T02:24:28.104Z,13.65
2022-11-08T02:25:29.695Z,13.64
2022-11-08T02:26:34.035Z,13.63
2022-11-08T02:27:36.661Z,13.62
2022-11-08T02:28:39.012Z,13.61
2022-11-08T02:29:42.008Z,13.60
2022-11-08T02:30:43.535Z,13.59
2022-11-08T02:31:46.075Z,13.58
2022-11-08T02:32:47.582Z,13.57
2022-11-08T02:33:50.615Z,13.56
2022-11-08T02:34:57.256Z,13.56
2022-11-08T02:35:59.079Z,13.55
2022-11-08T02:37:03.680Z,13.54
2022-11-08T02:38:05.426Z,13.54
2022-11-08T02:39:07.966Z,13.52
2022-11-08T02:40:11.496Z,13.50
2022-11-08T02:41:14.015Z,13.50
2022-11-08T02:42:18.445Z,13.49
2022-11-08T02:43:21.707Z,13.47
2022-11-08T02:44:23.222Z,13.47
2022-11-08T02:45:25.801Z,13.46
2022-11-08T02:46:27.333Z,13.45
2022-11-08T02:47:29.865Z,13.44
2022-11-08T02:48:31.382Z,13.44
2022-11-08T02:49:33.878Z,13.41
2022-11-08T02:50:35.743Z,13.41
2022-11-08T02:51:38.299Z,13.39
2022-11-08T02:52:40.791Z,13.38
2022-11-08T02:53:42.573Z,13.36
2022-11-08T02:54:45.090Z,13.35
2022-11-08T02:55:47.996Z,13.34
2022-11-08T02:56:50.630Z,13.33
2022-11-08T02:57:52.639Z,13.30
2022-11-08T02:58:55.148Z,13.29
2022-11-08T02:59:56.817Z,13.29
2022-11-08T03:00:59.432Z,13.27
2022-11-08T03:02:01.234Z,13.26
2022-11-08T03:03:04.389Z,13.23
2022-11-08T03:04:06.311Z,13.21
2022-11-08T03:05:09.001Z,13.20
2022-11-08T03:06:10.886Z,13.19
2022-11-08T03:07:13.382Z,13.19
2022-11-08T03:08:15.329Z,13.17
2022-11-08T03:09:18.081Z,13.15
2022-11-08T03:10:20.333Z,13.16
2022-11-08T03:11:24.347Z,13.15
2022-11-08T03:12:25.861Z,13.15
2022-11-08T03:13:28.414Z,13.15
2022-11-08T03:14:29.932Z,13.13
2022-11-08T03:15:33.372Z,13.13
2022-11-08T03:16:34.979Z,13.12
2022-11-08T03:17:37.863Z,13.12
2022-11-08T03:18:39.406Z,13.12
2022-11-08T03:19:42.600Z,13.10
2022-11-08T03:20:44.434Z,13.10
2022-11-08T03:21:46.935Z,13.10
2022-11-08T03:22:48.699Z,13.08
2022-11-08T03:23:51.277Z,13.07
2022-11-08T03:24:52.844Z,13.07
2022-11-08T03:25:55.754Z,13.07
2022-11-08T03:26:58.843Z,13.05
2022-11-08T03:28:03.143Z,13.06
2022-11-08T03:29:04.717Z,13.04
2022-11-08T03:30:08.932Z,13.05
2022-11-08T03:31:10.670Z,13.03
2022-11-08T03:32:13.733Z,13.04
2022-11-08T03:33:15.308Z,13.04
2022-11-08T03:34:17.876Z,13.03
2022-11-08T03:35:19.427Z,13.01
2022-11-08T03:36:21.955Z,13.01
2022-11-08T03:37:23.518Z,13.01
2022-11-08T03:38:26.039Z,12.99
2022-11-08T03:39:27.618Z,12.99
2022-11-08T03:40:30.079Z,12.99
2022-11-08T03:41:32.601Z,12.99
2022-11-08T03:42:35.557Z,12.98
2022-11-08T03:43:38.038Z,12.98
2022-11-08T03:44:39.952Z,12.96
2022-11-08T03:45:42.627Z,12.96
2022-11-08T03:46:44.197Z,12.96
2022-11-08T03:47:51.058Z,12.95
2022-11-08T03:48:53.519Z,12.93
2022-11-08T03:49:55.043Z,12.93
2022-11-08T03:50:57.525Z,12.93
2022-11-08T03:51:59.063Z,12.92
2022-11-08T03:53:01.618Z,12.92
2022-11-08T03:54:03.235Z,12.91
2022-11-08T03:55:06.598Z,12.89
2022-11-08T03:56:08.506Z,12.90
2022-11-08T03:57:11.004Z,12.89
2022-11-08T03:58:15.105Z,12.87
2022-11-08T03:59:16.847Z,12.87
2022-11-08T04:00:21.509Z,12.87
2022-11-08T04:01:23.154Z,12.86
2022-11-08T04:02:25.770Z,12.84
2022-11-08T04:03:27.362Z,12.83
2022-11-08T04:04:29.858Z,12.82
2022-11-08T04:05:32.446Z,12.82
2022-11-08T04:06:35.511Z,12.80
2022-11-08T04:07:37.397Z,12.80
2022-11-08T04:08:39.936Z,12.78
2022-11-08T04:09:41.433Z,12.78
2022-11-08T04:10:44.022Z,12.77
2022-11-08T04:12:04.398Z,12.78
2022-11-08T04:13:24.847Z,12.77
2022-11-08T04:14:46.409Z,12.75
2022-11-08T04:15:54.040Z,12.75
2022-11-08T04:16:55.613Z,12.75
2022-11-08T04:18:16.711Z,12.73
2022-11-08T04:19:37.254Z,12.71
2022-11-08T04:20:57.706Z,12.70
2022-11-08T04:22:00.531Z,12.68
2022-11-08T04:23:02.071Z,12.68
2022-11-08T04:24:04.877Z,12.67
2022-11-08T04:25:07.332Z,12.66
2022-11-08T04:26:11.605Z,12.66
2022-11-08T04:27:13.196Z,12.64
2022-11-08T04:28:15.981Z,12.65
2022-11-08T04:29:18.865Z,12.65
2022-11-08T04:30:21.752Z,12.63
2022-11-08T04:31:24.287Z,12.64
2022-11-08T04:32:26.015Z,12.64
2022-11-08T04:33:28.529Z,12.64
2022-11-08T04:34:30.428Z,12.63
2022-11-08T04:35:32.979Z,12.63
2022-11-08T04:36:35.764Z,12.63
2022-11-08T04:37:37.349Z,12.63
2022-11-08T04:38:39.834Z,12.63
2022-11-08T04:39:41.364Z,12.63
2022-11-08T04:40:44.341Z,12.62
2022-11-08T04:41:46.829Z,12.62
2022-11-08T04:42:48.397Z,12.60
2022-11-08T04:43:51.566Z,12.59
2022-11-08T04:44:53.067Z,12.58
2022-11-08T04:46:01.483Z,12.59
2022-11-08T04:47:03.036Z,12.61
2022-11-08T04:48:07.096Z,12.61
2022-11-08T04:49:08.745Z,12.59
2022-11-08T04:50:11.552Z,12.59
2022-11-08T04:51:17.287Z,12.59
2022-11-08T04:52:18.811Z,12.56
2022-11-08T04:53:21.835Z,12.57
2022-11-08T04:54:23.349Z,12.56
2022-11-08T04:55:25.931Z,12.57
2022-11-08T04:56:29.301Z,12.55
2022-11-08T04:57:31.828Z,12.54
2022-11-08T04:58:34.584Z,12.56
2022-11-08T04:59:39.226Z,12.56
2022-11-08T05:00:40.843Z,12.56
2022-11-08T05:01:44.784Z,12.56
2022-11-08T05:02:46.484Z,12.56
2022-11-08T05:03:50.860Z,12.57
2022-11-08T05:04:52.793Z,12.57
2022-11-08T05:05:55.519Z,12.57
2022-11-08T05:06:57.071Z,12.56
2022-11-08T05:07:59.584Z,12.55
2022-11-08T05:09:01.132Z,12.54
2022-11-08T05:10:03.791Z,12.54
2022-11-08T05:11:07.971Z,12.51
2022-11-08T05:12:09.492Z,12.52
2022-11-08T05:13:12.092Z,12.51
2022-11-08T05:14:13.632Z,12.51
2022-11-08T05:15:16.287Z,12.48
2022-11-08T05:16:20.080Z,12.47
2022-11-08T05:17:23.919Z,12.47
2022-11-08T05:18:25.468Z,12.45
2022-11-08T05:19:45.367Z,12.45
2022-11-08T05:21:11.611Z,12.43
2022-11-08T05:22:31.838Z,12.42
2022-11-08T05:23:34.331Z,12.40
2022-11-08T05:24:35.939Z,12.39
2022-11-08T05:25:40.009Z,12.37
2022-11-08T05:26:43.571Z,12.37
2022-11-08T05:27:46.115Z,12.37
2022-11-08T05:28:47.899Z,12.36
2022-11-08T05:29:50.479Z,12.38
2022-11-08T05:30:53.569Z,12.36
2022-11-08T05:31:56.059Z,12.36
2022-11-08T05:32:58.995Z,12.34
2022-11-08T05:34:01.699Z,12.34
2022-11-08T05:35:03.650Z,12.36
2022-11-08T05:36:08.605Z,12.34
2022-11-08T05:37:10.185Z,12.34
2022-11-08T05:38:12.795Z,12.33
2022-11-08T05:39:15.340Z,12.31
2022-11-08T05:40:17.140Z,12.31
2022-11-08T05:41:21.589Z,12.30
2022-11-08T05:42:23.164Z,12.30
2022-11-08T05:43:25.758Z,12.29
2022-11-08T05:44:27.337Z,12.30
2022-11-08T05:45:29.933Z,12.29
2022-11-08T05:46:32.948Z,12.29
2022-11-08T05:47:34.807Z,12.28
2022-11-08T05:48:38.670Z,12.28
2022-11-08T05:49:40.303Z,12.27
2022-11-08T05:50:43.921Z,12.27
2022-11-08T05:51:45.562Z,12.25
2022-11-08T05:52:48.056Z,12.26
2022-11-08T05:53:49.676Z,12.26
2022-11-08T05:54:53.285Z,12.26
2022-11-08T05:55:59.294Z,12.25
2022-11-08T05:57:00.843Z,12.25
2022-11-08T05:58:03.350Z,12.25
2022-11-08T05:59:05.195Z,12.25
2022-11-08T06:00:09.402Z,12.27
2022-11-08T06:01:13.083Z,12.26
2022-11-08T06:02:17.709Z,12.26
2022-11-08T06:03:22.556Z,12.25
2022-11-08T06:04:27.708Z,12.26
2022-11-08T06:05:30.307Z,12.26
2022-11-08T06:06:33.507Z,12.25
2022-11-08T06:07:35.935Z,12.24
2022-11-08T06:08:39.726Z,12.23
2022-11-08T06:09:41.344Z,12.23
2022-11-08T06:10:43.823Z,12.22
2022-11-08T06:11:45.378Z,12.22
2022-11-08T06:12:48.086Z,12.20
2022-11-08T06:13:50.115Z,12.21
2022-11-08T06:14:52.756Z,12.21
2022-11-08T06:15:55.305Z,12.23
2022-11-08T06:16:59.279Z,12.23
2022-11-08T06:18:03.832Z,12.22
2022-11-08T06:19:05.420Z,12.21
2022-11-08T06:20:11.791Z,12.22
2022-11-08T06:21:15.050Z,12.22
2022-11-08T06:22:17.846Z,12.21
2022-11-08T06:23:20.867Z,12.21
2022-11-08T06:24:23.760Z,12.21
2022-11-08T06:25:26.269Z,12.21
2022-11-08T06:26:27.819Z,12.21
2022-11-08T06:27:30.783Z,12.21
2022-11-08T06:28:32.821Z,12.20
2022-11-08T06:29:35.728Z,12.21
2022-11-08T06:30:37.363Z,12.21
2022-11-08T06:31:43.055Z,12.21
2022-11-08T06:32:45.960Z,12.20
2022-11-08T06:33:47.625Z,12.21
2022-11-08T06:34:50.087Z,12.20
2022-11-08T06:35:53.251Z,12.20
2022-11-08T06:36:58.599Z,12.20
2022-11-08T06:38:04.554Z,12.18
2022-11-08T06:39:10.698Z,12.19
2022-11-08T06:40:12.459Z,12.20
2022-11-08T06:41:19.792Z,12.20
2022-11-08T06:42:21.756Z,12.22
2022-11-08T06:43:24.537Z,12.21
2022-11-08T06:44:26.751Z,12.21
2022-11-08T06:45:31.242Z,12.22
2022-11-08T06:46:33.207Z,12.22
2022-11-08T06:47:35.757Z,12.21
2022-11-08T06:48:37.319Z,12.24
2022-11-08T06:49:39.833Z,12.24
2022-11-08T06:50:42.537Z,12.23
2022-11-08T06:51:46.429Z,12.24
2022-11-08T06:52:48.974Z,12.26
2022-11-08T06:53:50.531Z,12.26
2022-11-08T06:54:53.017Z,12.28
2022-11-08T06:55:54.988Z,12.30
2022-11-08T06:57:00.280Z,12.30
2022-11-08T06:58:03.270Z,12.31
2022-11-08T06:59:04.925Z,12.33
2022-11-08T07:00:08.627Z,12.34
2022-11-08T07:01:10.994Z,12.34
2022-11-08T07:02:13.681Z,12.34
2022-11-08T07:03:17.681Z,12.37
2022-11-08T07:04:20.595Z,12.38
2022-11-08T07:05:22.749Z,12.38
2022-11-08T07:06:25.239Z,12.41
2022-11-08T07:07:28.099Z,12.41
2022-11-08T07:08:30.745Z,12.42
2022-11-08T07:09:33.988Z,12.44
2022-11-08T07:10:36.373Z,12.46
2022-11-08T07:11:39.035Z,12.47
2022-11-08T07:12:40.635Z,12.48
2022-11-08T07:13:44.282Z,12.49
2022-11-08T07:14:46.753Z,12.49
2022-11-08T07:15:48.508Z,12.50
2022-11-08T07:16:51.000Z,12.50
2022-11-08T07:17:52.577Z,12.52
2022-11-08T07:18:55.627Z,12.54
2022-11-08T07:20:00.888Z,12.55
2022-11-08T07:21:03.335Z,12.56
2022-11-08T07:22:05.974Z,12.58
2022-11-08T07:23:09.834Z,12.59
2022-11-08T07:24:12.361Z,12.60
2022-11-08T07:25:13.901Z,12.60
2022-11-08T07:26:16.593Z,12.63
2022-11-08T07:27:19.115Z,12.63
2022-11-08T07:28:20.900Z,12.64
2022-11-08T07:29:23.404Z,12.66
2022-11-08T07:30:25.238Z,12.66
2022-11-08T07:31:27.903Z,12.67
2022-11-08T07:32:29.637Z,12.68
2022-11-08T07:33:32.329Z,12.68
2022-11-08T07:34:33.961Z,12.70
2022-11-08T07:35:36.541Z,12.72
2022-11-08T07:36:39.075Z,12.71
2022-11-08T07:37:40.755Z,12.72
2022-11-08T07:38:44.603Z,12.72
2022-11-08T07:39:46.127Z,12.73
2022-11-08T07:40:48.817Z,12.74
2022-11-08T07:41:51.280Z,12.76
2022-11-08T07:44:15.703Z,12.79
2022-11-08T07:45:17.547Z,12.80
2022-11-08T07:46:24.753Z,12.82
2022-11-08T07:47:26.366Z,12.83
2022-11-08T07:48:30.853Z,12.85
2022-11-08T07:49:32.352Z,12.88
2022-11-08T07:50:35.027Z,12.90
2022-11-08T07:51:37.573Z,12.93
2022-11-08T07:52:39.105Z,12.95
2022-11-08T07:53:45.084Z,12.97
2022-11-08T07:54:46.693Z,12.97
2022-11-08T07:55:49.567Z,12.99
2022-11-08T07:56:51.077Z,13.03
2022-11-08T07:57:58.662Z,13.05
2022-11-08T07:59:01.163Z,13.06
2022-11-08T08:00:07.921Z,13.07
2022-11-08T08:01:16.579Z,13.07
2022-11-08T08:02:18.259Z,13.12
2022-11-08T08:03:21.314Z,13.13
2022-11-08T08:04:23.183Z,13.14
2022-11-08T08:05:26.715Z,13.17
2022-11-08T08:06:29.202Z,13.18
2022-11-08T08:07:30.744Z,13.20
2022-11-08T08:08:33.204Z,13.21
2022-11-08T08:09:41.005Z,13.23
2022-11-08T08:10:43.483Z,13.24
2022-11-08T08:11:45.932Z,13.26
2022-11-08T08:12:48.406Z,13.27
2022-11-08T08:13:50.904Z,13.30
2022-11-08T08:14:53.441Z,13.30
2022-11-08T08:15:58.505Z,13.32
2022-11-08T08:17:00.160Z,13.33
2022-11-08T08:18:03.966Z,13.33
2022-11-08T08:19:06.617Z,13.34
2022-11-08T08:20:09.235Z,13.36
2022-11-08T08:21:11.767Z,13.36
2022-11-08T08:22:13.948Z,13.36
2022-11-08T08:23:16.738Z,13.37
2022-11-08T08:24:22.142Z,13.37
2022-11-08T08:25:25.650Z,13.37
2022-11-08T08:26:28.426Z,13.38
2022-11-08T08:27:30.030Z,13.38
2022-11-08T08:28:32.504Z,13.39
2022-11-08T08:29:33.998Z,13.40
2022-11-08T08:30:36.866Z,13.42
2022-11-08T08:31:38.603Z,13.42
2022-11-08T08:32:41.274Z,13.44
2022-11-08T08:33:43.824Z,13.44
2022-11-08T08:34:45.345Z,13.46
2022-11-08T08:35:47.858Z,13.46
2022-11-08T08:36:50.320Z,13.48
2022-11-08T08:37:52.236Z,13.48
2022-11-08T08:38:54.809Z,13.49
2022-11-08T08:39:57.422Z,13.51
2022-11-08T08:41:02.601Z,13.53
2022-11-08T08:42:05.125Z,13.54
2022-11-08T08:43:06.988Z,13.56
2022-11-08T08:44:09.459Z,13.58
2022-11-08T08:45:14.864Z,13.60
2022-11-08T08:46:16.786Z,13.63
2022-11-08T08:47:19.516Z,13.64
2022-11-08T08:48:22.407Z,13.65
2022-11-08T08:49:24.982Z,13.67
2022-11-08T08:50:29.438Z,13.69
2022-11-08T08:51:31.967Z,13.70
2022-11-08T08:52:33.729Z,13.73
2022-11-08T08:53:36.249Z,13.75
2022-11-08T08:54:38.753Z,13.78
2022-11-08T08:55:41.698Z,13.79
2022-11-08T08:56:44.638Z,13.81
2022-11-08T08:57:47.902Z,13.83
2022-11-08T09:02:44.740Z,13.91
2022-11-08T09:03:46.262Z,13.93
2022-11-08T09:04:48.746Z,13.94
2022-11-08T09:05:51.579Z,13.97
2022-11-08T09:06:54.445Z,14.00
2022-11-08T09:07:57.096Z,14.02
2022-11-08T09:08:59.554Z,14.04
2022-11-08T09:10:01.163Z,14.08
2022-11-08T09:11:04.420Z,14.11
2022-11-08T09:12:11.992Z,14.15
2022-11-08T09:13:17.376Z,14.18
2022-11-08T09:14:19.123Z,14.21
2022-11-08T09:15:22.238Z,14.22
2022-11-08T09:16:24.709Z,14.25
2022-11-08T09:17:27.102Z,14.28
2022-11-08T09:18:29.744Z,14.29
2022-11-08T09:19:31.483Z,14.32
2022-11-08T09:20:33.948Z,14.33
2022-11-08T09:21:36.548Z,14.35
2022-11-08T09:22:39.649Z,14.36
2022-11-08T09:23:42.187Z,14.38
2022-11-08T09:24:44.688Z,14.39
2022-11-08T09:25:46.490Z,14.41
2022-11-08T09:26:48.965Z,14.43
2022-11-08T09:27:54.099Z,14.44
2022-11-08T09:28:56.589Z,14.45
2022-11-08T09:29:59.467Z,14.47
2022-11-08T09:31:03.564Z,14.48
2022-11-08T09:32:06.442Z,14.49
2022-11-08T09:33:08.084Z,14.50
2022-11-08T09:34:10.712Z,14.52
2022-11-08T09:35:12.296Z,14.54
2022-11-08T09:36:14.925Z,14.55
2022-11-08T09:37:17.492Z,14.57
2022-11-08T09:38:20.514Z,14.58
2022-11-08T09:39:22.312Z,14.61
2022-11-08T09:40:32.092Z,14.63
2022-11-08T09:42:03.922Z,14.64
2022-11-08T09:43:28.131Z,14.65
2022-11-08T09:44:54.096Z,14.66
2022-11-08T09:45:57.402Z,14.66
2022-11-08T09:47:04.423Z,14.68
2022-11-08T09:48:15.315Z,14.71
2022-11-08T09:49:23.370Z,14.71
2022-11-08T09:50:31.597Z,14.74
2022-11-08T09:51:35.014Z,14.75
2022-11-08T09:52:40.905Z,14.76
2022-11-08T09:53:49.226Z,14.77
2022-11-08T09:54:54.776Z,14.79
2022-11-08T09:56:01.175Z,14.80
2022-11-08T09:57:05.228Z,14.81
2022-11-08T09:58:23.448Z,14.80
2022-11-08T09:59:35.981Z,14.81
2022-11-08T10:00:40.970Z,14.82
2022-11-08T10:01:43.694Z,14.82
2022-11-08T10:02:45.445Z,14.83
2022-11-08T10:03:53.350Z,14.84
2022-11-08T10:04:59.212Z,14.83
2022-11-08T10:06:27.568Z,14.84
2022-11-08T10:07:36.079Z,14.83
2022-11-08T10:08:46.080Z,14.85
2022-11-08T10:10:05.102Z,14.86
2022-11-08T10:11:20.449Z,14.86
2022-11-08T10:12:30.766Z,14.88
2022-11-08T10:13:43.699Z,14.90
2022-11-08T10:15:01.216Z,14.90
2022-11-08T10:16:18.019Z,14.91
2022-11-08T10:17:39.021Z,14.90
2022-11-08T10:18:59.098Z,14.91
2022-11-08T10:20:14.107Z,14.92
2022-11-08T10:21:39.001Z,14.93
2022-11-08T10:22:50.646Z,14.95
2022-11-08T10:24:01.617Z,14.97
2022-11-08T10:25:12.679Z,14.99
2022-11-08T10:26:17.468Z,15.00
2022-11-08T10:27:37.821Z,15.01
2022-11-08T10:28:49.943Z,15.02
2022-11-08T10:29:58.980Z,15.04
2022-11-08T10:31:02.147Z,15.05
2022-11-08T10:32:13.599Z,15.05
2022-11-08T10:33:21.585Z,15.07
2022-11-08T10:34:27.952Z,15.09
2022-11-08T10:35:37.657Z,15.10
2022-11-08T10:36:42.962Z,15.11
2022-11-08T10:37:45.817Z,15.14
2022-11-08T10:38:54.395Z,15.15
2022-11-08T10:40:01.247Z,15.15
2022-11-08T10:41:11.285Z,15.16
2022-11-08T10:42:20.173Z,15.18
2022-11-08T10:43:29.815Z,15.18
2022-11-08T10:44:35.671Z,15.21
2022-11-08T10:45:38.389Z,15.22
2022-11-08T10:46:44.167Z,15.25
2022-11-08T10:47:48.635Z,15.27
2022-11-08T10:48:51.179Z,15.28
2022-11-08T10:49:55.576Z,15.29
2022-11-08T10:51:00.883Z,15.31
2022-11-08T10:52:18.898Z,15.31
2022-11-08T10:53:26.812Z,15.33
2022-11-08T10:54:47.482Z,15.34
2022-11-08T10:55:52.428Z,15.36
2022-11-08T10:56:56.539Z,15.36
2022-11-08T10:57:58.078Z,15.40
2022-11-08T10:59:00.543Z,15.42
2022-11-08T11:00:24.950Z,15.44
2022-11-08T11:01:27.683Z,15.46
2022-11-08T11:02:35.178Z,15.49
2022-11-08T11:03:37.677Z,15.49
2022-11-08T11:04:39.208Z,15.52
2022-11-08T11:05:44.066Z,15.54
2022-11-08T11:06:45.703Z,15.55
2022-11-08T11:08:01.869Z,15.57
2022-11-08T11:09:19.037Z,15.56
2022-11-08T11:10:25.496Z,15.57
2022-11-08T11:11:36.422Z,15.58
2022-11-08T11:12:37.919Z,15.58
2022-11-08T11:13:40.430Z,15.59
2022-11-08T11:14:41.952Z,15.61
2022-11-08T11:15:50.873Z,15.64
2022-11-08T11:16:57.531Z,15.67
2022-11-08T11:18:00.138Z,15.69
2022-11-08T11:19:05.519Z,15.71
2022-11-08T11:20:21.697Z,15.72
2022-11-08T11:21:25.129Z,15.73
2022-11-08T11:22:29.663Z,15.75
2022-11-08T11:23:42.307Z,15.75
2022-11-08T11:24:47.606Z,15.76
2022-11-08T11:25:52.337Z,15.77
2022-11-08T11:27:03.834Z,15.78
2022-11-08T11:28:06.517Z,15.79
2022-11-08T11:29:19.151Z,15.83
2022-11-08T11:30:30.842Z,15.83
2022-11-08T11:31:35.873Z,15.84
2022-11-08T11:32:39.814Z,15.84
2022-11-08T11:33:46.026Z,15.87
2022-11-08T11:34:52.386Z,15.87
2022-11-08T11:35:58.596Z,15.90
2022-11-08T11:37:10.822Z,15.92
2022-11-08T11:38:23.526Z,15.96
2022-11-08T11:39:32.519Z,16.01
2022-11-08T11:40:39.946Z,16.06
2022-11-08T11:41:49.146Z,16.11
2022-11-08T11:42:59.727Z,16.13
2022-11-08T11:44:12.785Z,16.16
2022-11-08T11:45:20.852Z,16.20
2022-11-08T11:46:30.715Z,16.22
2022-11-08T11:47:39.653Z,16.25
2022-11-08T11:48:46.989Z,16.27
2022-11-08T11:49:51.538Z,16.29
2022-11-08T11:50:54.264Z,16.32
2022-11-08T11:51:58.014Z,16.35
2022-11-08T11:53:01.870Z,16.36
2022-11-08T11:54:07.603Z,16.37
2022-11-08T11:55:14.344Z,16.39
2022-11-08T11:56:49.298Z,16.39
2022-11-08T11:58:03.882Z,16.39
2022-11-08T11:59:28.578Z,16.39
2022-11-08T12:00:31.154Z,16.40
2022-11-08T12:01:55.052Z,16.43
2022-11-08T12:03:35.633Z,16.44
2022-11-08T12:04:56.525Z,16.44
2022-11-08T12:06:18.567Z,16.43
2022-11-08T12:07:25.356Z,16.44
2022-11-08T12:08:40.691Z,16.44
2022-11-08T12:09:53.475Z,16.45
2022-11-08T12:11:10.184Z,16.44
2022-11-08T12:12:25.759Z,16.44
2022-11-08T12:13:41.122Z,16.44
2022-11-08T12:14:57.924Z,16.44
2022-11-08T12:16:06.696Z,16.46
2022-11-08T12:17:33.166Z,16.48
2022-11-08T12:19:01.600Z,16.50
2022-11-08T12:20:22.825Z,16.52
2022-11-08T12:21:35.117Z,16.54
2022-11-08T12:22:47.593Z,16.55
2022-11-08T12:24:13.182Z,16.56
2022-11-08T12:25:24.355Z,16.57
2022-11-08T12:26:32.820Z,16.58
2022-11-08T12:27:47.715Z,16.58
2022-11-08T12:29:09.362Z,16.61
2022-11-08T12:30:17.012Z,16.62
2022-11-08T12:31:27.872Z,16.61
2022-11-08T12:32:50.884Z,16.62
2022-11-08T12:34:06.832Z,16.63
2022-11-08T12:35:23.027Z,16.64
2022-11-08T12:36:33.692Z,16.64
2022-11-08T12:37:51.175Z,16.65
2022-11-08T12:39:05.012Z,16.64
2022-11-08T12:40:20.169Z,16.65
2022-11-08T12:41:32.970Z,16.65
2022-11-08T12:42:49.054Z,16.64
2022-11-08T12:44:19.895Z,16.63
2022-11-08T12:45:30.310Z,16.63
2022-11-08T12:46:35.937Z,16.61
2022-11-08T12:47:45.917Z,16.62
2022-11-08T12:49:15.073Z,16.60
2022-11-08T12:50:25.737Z,16.60
2022-11-08T12:51:37.383Z,16.61
2022-11-08T12:52:56.290Z,16.61
2022-11-08T12:54:18.608Z,16.60
2022-11-08T12:55:27.999Z,16.62
2022-11-08T12:56:37.030Z,16.64
2022-11-08T12:57:40.917Z,16.67
2022-11-08T12:58:46.357Z,16.70
2022-11-08T12:59:53.918Z,16.72
2022-11-08T13:01:02.429Z,16.74
2022-11-08T13:02:06.844Z,16.74
2022-11-08T13:03:29.852Z,16.78
2022-11-08T13:04:48.340Z,16.79
2022-11-08T13:06:00.635Z,16.80
2022-11-08T13:07:12.710Z,16.81
2022-11-08T13:08:25.497Z,16.83
2022-11-08T13:09:39.893Z,16.82
2022-11-08T13:10:49.631Z,16.82
2022-11-08T13:12:05.322Z,16.81
2022-11-08T13:13:16.770Z,16.81
2022-11-08T13:14:19.594Z,16.79
2022-11-08T13:15:25.049Z,16.80
2022-11-08T13:16:28.997Z,16.80
2022-11-08T13:17:32.187Z,16.80
2022-11-08T13:18:34.872Z,16.81
2022-11-08T13:20:06.109Z,16.79
2022-11-08T13:21:37.829Z,16.79
2022-11-08T13:22:59.663Z,16.77
2022-11-08T13:24:43.820Z,16.76
2022-11-08T13:25:46.757Z,16.76
2022-11-08T13:26:49.951Z,16.78
2022-11-08T13:27:52.658Z,16.79
2022-11-08T13:28:55.603Z,16.82
2022-11-08T13:30:00.671Z,16.84
2022-11-08T13:31:32.084Z,16.85
2022-11-08T13:32:53.659Z,16.86
2022-11-08T13:34:20.385Z,16.86
2022-11-08T13:35:30.436Z,16.87
2022-11-08T13:36:43.551Z,16.89
2022-11-08T13:38:00.376Z,16.88
2022-11-08T13:39:24.831Z,16.90
2022-11-08T13:40:56.054Z,16.89
2022-11-08T13:42:04.411Z,16.89
2022-11-08T13:43:26.244Z,16.89
2022-11-08T13:44:58.027Z,16.89
2022-11-08T13:46:33.802Z,16.89
2022-11-08T13:48:28.104Z,16.86
2022-11-08T13:49:30.993Z,16.85
2022-11-08T13:50:55.987Z,16.84
2022-11-08T13:52:36.021Z,16.84
2022-11-08T13:53:47.512Z,16.85
2022-11-08T13:54:52.977Z,16.85
2022-11-08T13:55:57.350Z,16.87
2022-11-08T13:57:00.475Z,16.88
2022-11-08T13:58:02.273Z,16.90
2022-11-08T13:59:48.656Z,16.92
2022-11-08T14:00:52.585Z,16.93
2022-11-08T14:02:00.424Z,16.94
2022-11-08T14:03:03.089Z,16.96
2022-11-08T14:04:25.523Z,16.98
2022-11-08T14:05:30.738Z,16.99
2022-11-08T14:06:41.243Z,17.00
2022-11-08T14:07:47.504Z,17.02
2022-11-08T14:08:57.888Z,17.03
2022-11-08T14:10:09.120Z,17.05
2022-11-08T14:11:43.304Z,17.05
2022-11-08T14:12:54.047Z,17.07
2022-11-08T14:14:40.297Z,17.05
2022-11-08T14:15:48.104Z,17.05
2022-11-08T14:17:21.171Z,17.03